Time;durP1;ratioP1;P1;durP2;ratioP2;P2;SDS_P1;SDS_P2;PMS_P1;PMS_P2;Temp;Humidity;BMP_temperature;BMP_pressure;BME280_temperature;BME280_humidity;BME280_pressure;Samples;Min_cycle;Max_cycle;Signal;HPM_P1;HPM_P2
2022/06/05 00:00:00;;;;;;;29.07;22.32;;;;;;;14.89;75.78;100734.03;2199798;80;29222;-77
2022/06/05 00:03:16;;;;;;;24.30;21.93;;;;;;;14.86;75.73;100734.22;2136453;82;31669;-71
2022/06/05 00:06:34;;;;;;;22.82;20.15;;;;;;;14.83;75.71;100731.20;2201467;80;33071;-71
2022/06/05 00:09:59;;;;;;;22.22;19.02;;;;;;;14.79;75.75;100735.53;2199764;80;29920;-73
2022/06/05 00:13:24;;;;;;;20.10;18.10;;;;;;;14.77;75.82;100726.66;2185521;81;28194;-76
2022/06/05 00:16:28;;;;;;;20.08;16.20;;;;;;;14.75;75.63;100726.77;2170673;81;28671;-78
2022/06/05 00:19:31;;;;;;;18.60;15.07;;;;;;;14.74;75.57;100719.14;2188785;81;31790;-73
2022/06/05 00:22:32;;;;;;;16.00;14.40;;;;;;;14.75;75.43;100722.72;2188516;81;33048;-76
2022/06/05 00:25:54;;;;;;;16.60;14.55;;;;;;;14.77;75.26;100717.22;2188669;81;29322;-74
2022/06/05 00:29:13;;;;;;;13.68;12.37;;;;;;;14.76;75.20;100720.41;2150244;82;27653;-71
2022/06/05 00:32:32;;;;;;;14.63;13.15;;;;;;;14.72;75.08;100723.78;2190010;81;28670;-69
2022/06/05 00:35:38;;;;;;;13.40;11.68;;;;;;;14.70;74.99;100722.13;2147199;82;31027;-69
2022/06/05 00:38:48;;;;;;;13.65;12.35;;;;;;;14.66;74.96;100721.41;2141058;83;32940;-70
2022/06/05 00:41:58;;;;;;;14.70;12.00;;;;;;;14.65;74.86;100720.14;2141330;83;29515;-68
2022/06/05 00:45:10;;;;;;;14.38;11.03;;;;;;;14.64;74.81;100716.59;2142547;83;27874;-69
2022/06/05 00:48:12;;;;;;;11.18;10.18;;;;;;;14.65;74.69;100710.23;2140603;83;28617;-70
2022/06/05 00:51:13;;;;;;;12.15;9.95;;;;;;;14.69;74.60;100710.95;2141191;83;31036;-69
2022/06/05 00:54:14;;;;;;;11.43;10.23;;;;;;;14.71;74.58;100712.61;2141082;83;32944;-69
2022/06/05 00:57:17;;;;;;;10.82;9.63;;;;;;;14.73;74.46;100706.62;2141111;83;29356;-70
2022/06/05 01:00:26;;;;;;;11.22;10.13;;;;;;;14.74;74.29;100704.80;2141223;83;27820;-70
2022/06/05 01:03:28;;;;;;;11.20;9.85;;;;;;;14.76;74.25;100712.33;2140964;81;28894;-69
2022/06/05 01:06:29;;;;;;;12.75;10.60;;;;;;;14.72;74.16;100708.95;2141011;83;31026;-68
2022/06/05 01:09:31;;;;;;;12.40;9.80;;;;;;;14.58;74.16;100680.55;2141076;83;32981;-74
2022/06/05 01:13:00;;;;;;;13.10;9.58;;;;;;;14.68;74.08;100697.95;2192945;81;29944;-75
2022/06/05 01:16:31;;;;;;;12.55;9.75;;;;;;;14.67;74.00;100700.23;2160907;82;27799;-74
2022/06/05 01:19:50;;;;;;;15.35;10.13;;;;;;;14.64;74.07;100699.06;2201349;80;28686;-75
2022/06/05 01:23:12;;;;;;;10.45;9.45;;;;;;;14.59;74.00;100703.39;2201381;80;31027;-75
2022/06/05 01:26:33;;;;;;;11.80;10.38;;;;;;;14.54;74.02;100712.23;2201650;80;33613;-74
2022/06/05 01:29:43;;;;;;;13.22;10.32;;;;;;;14.46;73.98;100710.48;2201113;80;30057;-73
2022/06/05 01:33:08;;;;;;;11.28;9.45;;;;;;;14.38;74.02;100710.05;2201585;80;27720;-73
2022/06/05 01:36:24;;;;;;;13.10;10.10;;;;;;;14.30;74.05;100711.86;2201202;80;29466;-74
2022/06/05 01:39:48;;;;;;;12.73;10.48;;;;;;;14.20;74.05;100709.32;2201498;79;31033;-70
2022/06/05 01:42:58;;;;;;;10.98;9.88;;;;;;;14.12;74.11;100708.42;2189406;81;34655;-72
2022/06/05 01:46:10;;;;;;;12.75;9.75;;;;;;;14.03;74.21;100706.24;2194246;81;30162;-73
2022/06/05 01:49:20;;;;;;;11.60;10.40;;;;;;;13.94;74.23;100713.91;2197365;81;27712;-78
2022/06/05 01:52:36;;;;;;;11.97;10.65;;;;;;;13.86;74.29;100712.61;2197328;81;28667;-76
2022/06/05 01:55:54;;;;;;;11.28;10.13;;;;;;;13.79;74.41;100709.41;2197274;81;31036;-74
2022/06/05 01:59:09;;;;;;;13.03;11.12;;;;;;;13.72;74.60;100716.95;2197255;81;32987;-74
2022/06/05 02:02:15;;;;;;;15.88;10.48;;;;;;;13.65;74.60;100712.86;2190269;81;29952;-74
2022/06/05 02:05:22;;;;;;;12.82;10.08;;;;;;;13.59;74.74;100713.19;2196896;81;27747;-72
2022/06/05 02:08:29;;;;;;;13.75;10.60;;;;;;;13.51;74.66;100711.81;2197200;81;28162;-71
2022/06/05 02:11:32;;;;;;;13.80;10.80;;;;;;;13.45;74.65;100713.97;2227629;79;31024;-72
2022/06/05 02:14:34;;;;;;;13.13;10.40;;;;;;;13.38;74.77;100716.95;2240958;79;34073;-72
2022/06/05 02:17:36;;;;;;;13.80;11.97;;;;;;;13.31;74.91;100721.41;2196280;80;30090;-86
2022/06/05 02:20:38;;;;;;;14.78;12.58;;;;;;;13.25;74.96;100715.89;2223002;80;27697;-81
2022/06/05 02:23:40;;;;;;;13.35;11.95;;;;;;;13.19;75.00;100715.75;2223035;80;28686;-83
2022/06/05 02:26:42;;;;;;;12.10;11.00;;;;;;;13.15;75.05;100712.83;2222883;80;31074;-82
2022/06/05 02:29:44;;;;;;;13.98;11.55;;;;;;;13.10;75.07;100716.72;2223080;80;33552;-82
2022/06/05 02:33:06;;;;;;;14.95;12.15;;;;;;;13.04;75.12;100717.44;2196891;80;29529;-83
2022/06/05 02:36:34;;;;;;;13.85;12.28;;;;;;;12.98;75.17;100711.52;2223176;80;27594;-84
2022/06/05 02:39:56;;;;;;;12.73;11.30;;;;;;;12.92;75.19;100710.03;2222946;80;28593;-83
2022/06/05 02:43:21;;;;;;;15.35;13.13;;;;;;;12.87;75.33;100717.45;2223009;80;31011;-83
2022/06/05 02:46:28;;;;;;;14.38;11.80;;;;;;;12.82;75.39;100717.70;2222955;80;32950;-83
2022/06/05 02:49:39;;;;;;;14.58;11.68;;;;;;;12.79;75.51;100721.89;2223022;80;29398;-82
2022/06/05 02:52:41;;;;;;;14.80;12.05;;;;;;;12.74;75.56;100712.73;2223057;80;27699;-82
2022/06/05 02:55:43;;;;;;;13.18;11.88;;;;;;;12.72;75.62;100711.08;2222925;80;29314;-78
2022/06/05 02:58:47;;;;;;;13.78;12.30;;;;;;;12.70;75.75;100710.29;2222873;80;31012;-72
2022/06/05 03:05:09;;;;;;;13.88;12.58;;;;;;;12.69;75.87;100713.92;2223437;80;29867;-74
2022/06/05 03:08:13;;;;;;;16.40;13.05;;;;;;;12.69;75.96;100719.30;2222998;80;27602;-74
2022/06/05 03:11:15;;;;;;;15.35;12.43;;;;;;;12.70;76.07;100728.62;2222911;80;28649;-74
2022/06/05 03:14:16;;;;;;;16.80;13.50;;;;;;;12.71;76.17;100724.98;2223031;80;30992;-74
2022/06/05 03:17:17;;;;;;;21.70;14.05;;;;;;;12.73;76.16;100739.70;2225947;79;32906;-75
2022/06/05 03:20:19;;;;;;;15.40;13.90;;;;;;;12.75;76.33;100753.45;2227471;79;30206;-75
2022/06/05 03:23:20;;;;;;;16.37;14.33;;;;;;;12.78;76.43;100761.83;2228113;79;27688;-77
2022/06/05 03:26:22;;;;;;;17.25;15.50;;;;;;;12.82;76.52;100762.07;2231085;79;29409;-76
2022/06/05 03:29:23;;;;;;;17.65;14.15;;;;;;;12.86;76.57;100765.46;2230411;79;30997;-77
2022/06/05 03:32:26;;;;;;;16.27;14.30;;;;;;;12.92;76.60;100766.50;2227334;79;32936;-77
2022/06/05 03:35:27;;;;;;;16.02;13.98;;;;;;;12.98;76.72;100769.34;2227476;79;29300;-77
2022/06/05 03:38:28;;;;;;;16.90;14.73;;;;;;;13.07;76.85;100772.42;2227318;79;27729;-78
2022/06/05 03:41:30;;;;;;;18.87;15.90;;;;;;;13.17;76.90;100785.38;2227333;79;29452;-77
2022/06/05 03:44:38;;;;;;;18.90;15.68;;;;;;;13.30;76.95;100788.29;2227321;79;31911;-72
2022/06/05 03:47:40;;;;;;;17.50;13.85;;;;;;;13.45;76.97;100784.81;2227040;79;32948;-74
2022/06/05 03:50:42;;;;;;;15.98;14.28;;;;;;;13.62;76.92;100786.59;2227338;79;30133;-79
2022/06/05 03:53:43;;;;;;;16.20;14.40;;;;;;;13.81;76.97;100782.41;2227409;79;27572;-73
2022/06/05 03:56:44;;;;;;;17.17;14.40;;;;;;;13.99;76.87;100780.98;2227408;79;28688;-72
2022/06/05 03:59:48;;;;;;;16.27;12.98;;;;;;;14.14;76.66;100787.34;2227427;79;31002;-71
2022/06/05 04:02:49;;;;;;;18.57;13.93;;;;;;;14.28;76.53;100783.84;2227067;79;32665;-72
2022/06/05 04:05:50;;;;;;;15.58;13.85;;;;;;;14.40;76.31;100776.38;2227400;79;29378;-72
2022/06/05 04:08:52;;;;;;;15.40;13.65;;;;;;;14.52;76.11;100777.50;2227475;79;27593;-71
2022/06/05 04:11:53;;;;;;;14.28;12.98;;;;;;;14.65;76.02;100781.70;2227446;79;29230;-73
2022/06/05 04:14:54;;;;;;;14.43;12.98;;;;;;;14.78;76.58;100779.19;2227287;79;30404;-76
2022/06/05 04:17:56;;;;;;;13.60;12.40;;;;;;;14.98;76.66;100777.98;2226908;79;32999;-74
2022/06/05 04:20:57;;;;;;;14.03;12.63;;;;;;;15.19;76.65;100781.69;2227381;79;29350;-75
2022/06/05 04:23:59;;;;;;;12.18;10.82;;;;;;;15.37;76.41;100785.06;2227497;79;27532;-74
2022/06/05 04:27:00;;;;;;;13.65;11.20;;;;;;;15.56;76.28;100783.92;2227285;79;28640;-74
2022/06/05 04:30:02;;;;;;;10.68;9.78;;;;;;;15.73;75.93;100781.02;2227416;79;31095;-74
2022/06/05 04:33:04;;;;;;;10.28;9.28;;;;;;;15.90;75.55;100778.60;2227401;79;32989;-69
2022/06/05 04:36:05;;;;;;;9.45;8.55;;;;;;;16.12;75.36;100783.98;2227275;79;29333;-69
2022/06/05 04:39:07;;;;;;;9.55;8.68;;;;;;;16.32;74.74;100787.21;2227430;79;27777;-71
2022/06/05 04:42:09;;;;;;;8.03;7.22;;;;;;;16.62;74.79;100789.72;2227492;79;28632;-72
2022/06/05 04:45:11;;;;;;;7.75;6.22;;;;;;;17.65;74.86;100779.49;2227390;79;32020;-71
2022/06/05 04:48:12;;;;;;;7.97;5.97;;;;;;;19.06;74.50;100782.67;2227250;79;32992;-70
2022/06/05 04:51:14;;;;;;;6.22;5.70;;;;;;;20.57;73.24;100772.83;2227269;79;29298;-74
2022/06/05 04:54:16;;;;;;;6.87;5.22;;;;;;;21.96;71.30;100761.28;2227319;79;27651;-71
2022/06/05 04:57:17;;;;;;;5.28;4.78;;;;;;;23.30;69.05;100764.86;2227250;79;29468;-72
2022/06/05 05:00:23;;;;;;;4.80;4.30;;;;;;;24.58;66.53;100769.69;2226846;79;30897;-72
2022/06/05 05:03:24;;;;;;;5.08;4.42;;;;;;;25.68;64.84;100767.09;2227302;79;32983;-73
2022/06/05 05:06:26;;;;;;;4.55;4.15;;;;;;;26.72;61.53;100768.30;2227457;79;29982;-74
2022/06/05 05:09:27;;;;;;;6.22;4.30;;;;;;;27.55;60.19;100760.84;2227267;79;27721;-73
2022/06/05 05:12:28;;;;;;;4.95;3.72;;;;;;;28.39;59.03;100768.55;2227280;79;28656;-69
2022/06/05 05:15:30;;;;;;;4.72;3.55;;;;;;;29.13;56.20;100763.52;2227509;79;30972;-74
2022/06/05 05:18:31;;;;;;;6.22;3.67;;;;;;;29.71;54.31;100759.09;2236333;79;33720;-70
2022/06/05 05:21:33;;;;;;;4.10;3.70;;;;;;;30.26;53.37;100767.05;2237192;79;30174;-77
2022/06/05 05:24:37;;;;;;;3.87;3.35;;;;;;;30.88;51.04;100763.33;2237210;79;28411;-68
2022/06/05 05:27:39;;;;;;;4.12;3.52;;;;;;;31.39;49.95;100768.87;2237322;79;28690;-73
2022/06/05 05:30:45;;;;;;;3.87;3.58;;;;;;;31.79;47.73;100764.45;2237276;79;31849;-68
2022/06/05 05:33:49;;;;;;;3.87;3.50;;;;;;;32.13;47.00;100760.41;2236129;79;34123;-73
2022/06/05 05:36:50;;;;;;;3.33;3.12;;;;;;;32.56;45.04;100757.88;2237125;79;29345;-75
2022/06/05 05:43:11;;;;;;;4.62;3.17;;;;;;;32.82;43.04;100752.92;2236959;79;29498;-76
2022/06/05 05:46:14;;;;;;;3.62;3.33;;;;;;;32.84;40.65;100750.80;2236718;79;31902;-73
2022/06/05 05:49:16;;;;;;;4.08;3.70;;;;;;;32.49;40.04;100747.33;2237228;79;33757;-72
2022/06/05 05:52:17;;;;;;;16.87;12.10;;;;;;;32.40;40.21;100743.90;2237260;79;29307;-72
2022/06/05 05:55:20;;;;;;;16.55;10.30;;;;;;;32.41;38.96;100745.06;2237344;79;28223;-66
2022/06/05 05:58:21;;;;;;;5.27;4.77;;;;;;;32.58;39.61;100735.83;2237451;79;28637;-73
2022/06/05 06:01:23;;;;;;;3.98;3.67;;;;;;;32.83;38.84;100735.21;2237233;79;31814;-65
2022/06/05 06:04:24;;;;;;;3.75;3.20;;;;;;;33.11;38.15;100734.67;2236759;79;33200;-65
2022/06/05 06:07:25;;;;;;;5.20;3.47;;;;;;;33.30;37.33;100725.98;2237194;79;29339;-71
2022/06/05 06:10:26;;;;;;;3.72;2.95;;;;;;;33.61;37.52;100722.52;2237091;79;27690;-70
2022/06/05 06:13:29;;;;;;;3.20;3.00;;;;;;;34.05;36.25;100717.22;2237261;79;29468;-73
2022/06/05 06:16:30;;;;;;;3.22;2.92;;;;;;;34.28;35.85;100717.17;2236941;79;31869;-76
2022/06/05 06:19:32;;;;;;;5.85;3.12;;;;;;;34.64;35.68;100718.45;2237674;79;32993;-73
2022/06/05 06:22:35;;;;;;;3.15;2.95;;;;;;;34.94;34.85;100716.39;2237091;79;30166;-68
2022/06/05 06:25:38;;;;;;;3.42;3.12;;;;;;;35.74;33.40;100710.52;2237404;79;27524;-67
2022/06/05 06:28:39;;;;;;;3.33;3.12;;;;;;;35.74;33.40;100710.52;2237221;79;28639;-65
2022/06/05 06:31:42;;;;;;;5.42;4.20;;;;;;;35.97;32.99;100713.69;2237177;79;31845;-66
2022/06/05 06:34:43;;;;;;;4.37;3.80;;;;;;;36.06;32.33;100718.39;2237427;79;33894;-65
2022/06/05 06:37:44;;;;;;;4.08;3.40;;;;;;;36.34;32.40;100713.03;2237103;79;29323;-64
2022/06/05 06:40:46;;;;;;;3.70;3.27;;;;;;;36.53;31.09;100703.78;2237396;79;27667;-64
2022/06/05 06:43:48;;;;;;;3.87;3.58;;;;;;;36.51;31.06;100706.80;2197569;81;29123;-64
2022/06/05 06:46:49;;;;;;;4.25;3.22;;;;;;;36.46;30.53;100707.52;2197539;81;30779;-63
2022/06/05 06:49:50;;;;;;;4.00;3.60;;;;;;;36.53;30.80;100714.95;2197377;81;33095;-64
2022/06/05 06:52:51;;;;;;;4.22;3.87;;;;;;;36.81;30.19;100708.68;2197419;81;28520;-64
2022/06/05 06:55:53;;;;;;;4.10;3.62;;;;;;;36.98;29.80;100710.22;2192946;81;27693;-62
2022/06/05 06:58:57;;;;;;;3.55;3.25;;;;;;;36.93;29.09;100710.09;2197576;81;29345;-61
2022/06/05 07:01:59;;;;;;;3.90;3.33;;;;;;;36.93;29.34;100713.75;2189524;81;30468;-63
2022/06/05 07:05:00;;;;;;;6.05;3.47;;;;;;;37.08;28.81;100709.05;2189559;81;33425;-61
2022/06/05 07:08:03;;;;;;;3.10;2.90;;;;;;;37.28;29.37;100709.23;2189796;81;30458;-63
2022/06/05 07:11:07;;;;;;;4.17;3.20;;;;;;;37.36;28.76;100706.07;2150537;82;27668;-64
2022/06/05 07:14:09;;;;;;;4.10;3.70;;;;;;;37.49;28.62;100706.92;2190207;81;28652;-67
2022/06/05 07:17:10;;;;;;;5.60;3.60;;;;;;;37.43;27.70;100712.09;2236730;79;31199;-63
2022/06/05 07:20:13;;;;;;;4.62;4.00;;;;;;;37.29;27.31;100711.48;2212435;79;34108;-64
2022/06/05 07:23:14;;;;;;;6.00;3.17;;;;;;;37.23;27.29;100704.38;2193688;81;29727;-63
2022/06/05 07:26:20;;;;;;;3.42;2.98;;;;;;;37.37;27.56;100706.91;2193463;81;27792;-64
2022/06/05 07:29:21;;;;;;;3.62;3.33;;;;;;;37.44;27.28;100708.20;2193372;81;28656;-62
2022/06/05 07:32:23;;;;;;;5.17;3.58;;;;;;;37.24;26.44;100700.49;2217862;79;31437;-62
2022/06/05 07:35:24;;;;;;;4.10;3.05;;;;;;;36.94;26.33;100698.70;2237036;79;33335;-62
2022/06/05 07:38:27;;;;;;;6.67;3.58;;;;;;;36.52;25.02;100706.27;2237206;79;30301;-61
2022/06/05 07:41:32;;;;;;;4.03;3.50;;;;;;;36.02;25.90;100709.66;2237353;79;28062;-61
2022/06/05 07:44:36;;;;;;;8.93;3.87;;;;;;;36.02;26.25;100698.50;2237054;79;28703;-64
2022/06/05 07:47:38;;;;;;;3.67;3.37;;;;;;;35.88;26.79;100690.83;2237041;79;31843;-62
2022/06/05 07:54:26;;;;;;;3.62;3.33;;;;;;;35.86;26.59;100687.42;2236503;79;35158;-68
2022/06/05 07:57:12;;;;;;;3.35;3.05;;;;;;;35.44;25.92;100693.73;2236791;79;27713;-69
2022/06/05 08:00:14;;;;;;;4.08;3.67;;;;;;;35.27;26.61;100690.14;2237630;79;28653;-68
2022/06/05 08:03:16;;;;;;;4.58;3.30;;;;;;;34.90;25.70;100684.52;2236825;78;31075;-67
2022/06/05 08:06:17;;;;;;;3.35;3.10;;;;;;;34.80;26.80;100679.99;2236801;79;32977;-67
2022/06/05 08:09:18;;;;;;;4.58;3.33;;;;;;;34.92;26.94;100684.28;2206512;78;29329;-65
2022/06/05 08:12:23;;;;;;;3.17;2.95;;;;;;;35.19;27.11;100688.20;2151011;82;27759;-67
2022/06/05 08:15:24;;;;;;;5.90;3.40;;;;;;;35.26;27.00;100689.83;2192982;81;28823;-70
2022/06/05 08:18:26;;;;;;;3.35;2.87;;;;;;;35.23;26.67;100683.88;2162474;81;31907;-66
2022/06/05 08:21:28;;;;;;;4.03;3.27;;;;;;;35.21;26.88;100674.37;2193153;81;32997;-65
2022/06/05 08:24:29;;;;;;;4.03;3.15;;;;;;;35.27;26.21;100678.16;2236806;79;29345;-66
2022/06/05 08:27:30;;;;;;;3.83;3.52;;;;;;;35.27;26.61;100684.57;2237116;79;27709;-67
2022/06/05 08:30:31;;;;;;;3.83;3.02;;;;;;;35.29;26.52;100684.36;2237049;79;28624;-66
2022/06/05 08:33:33;;;;;;;3.92;3.30;;;;;;;35.35;26.62;100675.05;2237022;79;31005;-66
2022/06/05 08:36:35;;;;;;;3.58;3.08;;;;;;;35.29;26.12;100671.83;2236882;79;33753;-66
2022/06/05 08:43:18;;;;;;;3.70;3.40;;;;;;;34.46;25.95;100677.51;2236709;79;27783;-66
2022/06/05 08:46:40;;;;;;;3.80;3.45;;;;;;;34.32;26.41;100677.27;2237325;79;28624;-63
2022/06/05 08:50:19;;;;;;;3.30;3.02;;;;;;;34.37;27.07;100670.47;2236912;79;31006;-63
2022/06/05 08:53:44;;;;;;;3.87;3.45;;;;;;;34.36;26.95;100677.11;2113702;84;33411;-63
2022/06/05 08:56:57;;;;;;;3.50;3.20;;;;;;;34.16;26.94;100675.87;2150749;82;30285;-66
2022/06/05 09:00:36;;;;;;;5.05;3.60;;;;;;;34.11;27.48;100664.55;2197674;80;27699;-65
2022/06/05 09:03:58;;;;;;;3.35;3.05;;;;;;;34.18;27.50;100665.38;2197831;81;29060;-65
2022/06/05 09:07:04;;;;;;;3.62;3.10;;;;;;;34.14;27.57;100670.55;2197773;81;31848;-65
2022/06/05 09:10:34;;;;;;;4.28;3.30;;;;;;;34.06;26.87;100666.63;2197668;81;32974;-65
2022/06/05 09:14:08;;;;;;;7.08;3.27;;;;;;;33.76;27.15;100667.19;2200431;79;29477;-65
2022/06/05 09:17:15;;;;;;;7.33;3.45;;;;;;;33.30;26.87;100661.58;2108048;84;27674;-65
2022/06/05 09:20:18;;;;;;;3.08;2.87;;;;;;;32.68;27.11;100663.24;2129628;81;29919;-64
2022/06/05 09:23:37;;;;;;;2.93;2.73;;;;;;;32.67;27.85;100661.56;2129917;83;31035;-65
2022/06/05 09:27:00;;;;;;;4.05;3.65;;;;;;;32.38;27.60;100661.45;2130411;83;32948;-65
2022/06/05 09:30:30;;;;;;;4.75;3.15;;;;;;;32.10;27.53;100657.75;2129877;83;30511;-62
2022/06/05 09:33:35;;;;;;;4.33;3.90;;;;;;;31.78;27.55;100659.36;2130157;83;27725;-66
2022/06/05 09:36:39;;;;;;;3.47;3.12;;;;;;;31.35;27.73;100661.29;2129710;83;28135;-65
2022/06/05 09:39:46;;;;;;;3.60;3.27;;;;;;;31.19;27.86;100654.70;2129726;83;31990;-65
2022/06/05 09:42:53;;;;;;;4.42;3.02;;;;;;;30.90;27.82;100653.86;2129885;83;33737;-64
2022/06/05 09:46:12;;;;;;;4.95;3.62;;;;;;;30.59;28.27;100653.20;2128242;83;29339;-65
2022/06/05 09:49:43;;;;;;;3.30;3.05;;;;;;;30.26;28.25;100651.50;2127419;83;27671;-64
2022/06/05 09:52:44;;;;;;;3.27;2.98;;;;;;;30.01;28.85;100644.46;2078956;85;28776;-64
2022/06/05 09:55:55;;;;;;;4.75;3.75;;;;;;;29.73;29.44;100651.73;2030792;87;32386;-64
2022/06/05 09:59:17;;;;;;;7.70;3.58;;;;;;;29.62;29.45;100651.73;2031609;87;33531;-64
2022/06/05 10:02:21;;;;;;;4.65;3.20;;;;;;;29.35;30.00;100652.75;2031000;87;30551;-65
2022/06/05 10:05:26;;;;;;;;;;;;;;;29.25;30.12;100649.74;2033880;87;27757;-64
2022/06/05 10:08:39;;;;;;;4.22;3.83;;;;;;;29.07;30.31;100640.98;2031256;87;29174;-64
2022/06/05 10:12:02;;;;;;;3.87;3.58;;;;;;;28.79;30.61;100636.97;2030461;87;32102;-65
2022/06/05 10:15:26;;;;;;;3.55;3.30;;;;;;;28.58;31.09;100637.67;2030424;87;33057;-64
2022/06/05 10:18:48;;;;;;;5.60;3.85;;;;;;;28.47;31.49;100618.80;2031104;87;29423;-64
2022/06/05 10:21:58;;;;;;;6.55;4.40;;;;;;;28.26;31.43;100623.64;2031456;87;27761;-65
2022/06/05 10:25:24;;;;;;;4.37;3.98;;;;;;;27.94;31.92;100615.94;2030160;85;29956;-65
2022/06/05 10:28:30;;;;;;;4.33;3.90;;;;;;;27.74;31.92;100616.41;2074600;81;32241;-65
2022/06/05 10:31:33;;;;;;;5.00;4.58;;;;;;;27.59;32.26;100618.56;2237488;79;33329;-64
2022/06/05 10:35:00;;;;;;;4.25;3.87;;;;;;;27.53;32.68;100614.30;2237258;79;29740;-64
2022/06/05 10:38:13;;;;;;;6.45;4.33;;;;;;;27.49;33.11;100623.44;2236967;79;28223;-64
2022/06/05 10:41:32;;;;;;;4.70;4.17;;;;;;;27.27;32.99;100614.91;2233333;79;28651;-64
2022/06/05 10:45:09;;;;;;;4.70;4.30;;;;;;;27.21;33.39;100629.89;2237278;79;31662;-64
2022/06/05 10:48:39;;;;;;;3.12;2.92;;;;;;;27.11;33.41;100624.59;2185630;81;33206;-64
2022/06/05 10:51:53;;;;;;;5.55;4.45;;;;;;;26.98;34.28;100619.64;2197388;79;29345;-65
2022/06/05 10:55:30;;;;;;;4.78;3.77;;;;;;;26.95;33.93;100607.64;2197527;80;27680;-64
2022/06/05 10:59:03;;;;;;;4.53;4.22;;;;;;;26.90;34.37;100606.77;2197159;81;29531;-64
2022/06/05 11:02:42;;;;;;;6.17;4.03;;;;;;;26.76;34.31;100612.97;2197222;81;31063;-64
2022/06/05 11:06:25;;;;;;;4.50;4.15;;;;;;;26.68;34.54;100609.22;2197397;81;34086;-64
2022/06/05 11:09:47;;;;;;;4.45;3.92;;;;;;;26.71;34.70;100597.01;2197169;80;31505;-64
2022/06/05 11:16:38;;;;;;;4.73;3.83;;;;;;;26.80;34.92;100578.64;2197485;81;29937;-65
2022/06/05 11:20:15;;;;;;;4.95;3.30;;;;;;;26.74;34.24;100583.42;2197377;81;30750;-65
2022/06/05 11:23:25;;;;;;;4.67;3.80;;;;;;;26.65;34.08;100581.20;2197450;81;33368;-64
2022/06/05 11:26:32;;;;;;;3.83;3.42;;;;;;;26.46;34.42;100570.09;2197328;81;29709;-64
2022/06/05 11:30:03;;;;;;;4.08;3.72;;;;;;;26.46;34.50;100566.84;2154453;81;27748;-65
2022/06/05 11:33:26;;;;;;;3.65;3.33;;;;;;;26.50;34.44;100568.72;2197471;81;28745;-64
2022/06/05 11:36:33;;;;;;;5.15;3.50;;;;;;;26.43;34.11;100549.83;2197254;81;31295;-64
2022/06/05 11:40:01;;;;;;;5.62;3.20;;;;;;;26.45;34.80;100545.02;2184801;81;33556;-64
2022/06/05 11:43:17;;;;;;;4.40;3.62;;;;;;;26.36;34.68;100549.17;2140588;82;29472;-64
2022/06/05 11:46:35;;;;;;;2.90;2.70;;;;;;;26.41;34.47;100554.63;2113191;84;27740;-64
2022/06/05 11:50:05;;;;;;;4.30;3.17;;;;;;;26.41;35.10;100551.89;2076575;85;29410;-64
2022/06/05 11:53:30;;;;;;;4.00;3.60;;;;;;;26.40;33.97;100540.05;2113103;84;31042;-65
2022/06/05 11:56:58;;;;;;;;;;;;;;;26.35;33.92;100536.47;2115853;84;32970;-65
2022/06/05 12:00:08;;;;;;;7.25;4.67;;;;;;;26.32;33.72;100538.68;2115961;84;29340;-66
2022/06/05 12:03:30;;;;;;;3.95;3.10;;;;;;;26.31;34.27;100530.12;2157252;82;27671;-66
2022/06/05 12:06:49;;;;;;;4.20;3.80;;;;;;;26.34;34.22;100526.51;2157455;82;28834;-64
2022/06/05 12:09:55;;;;;;;4.25;3.85;;;;;;;26.33;34.41;100520.67;2113253;84;31514;-64
2022/06/05 12:13:47;;;;;;;7.62;4.55;;;;;;;26.37;34.27;100522.05;2113976;84;32746;-64
2022/06/05 12:17:18;;;;;;;4.83;4.30;;;;;;;26.41;34.38;100508.81;2145811;81;30105;-65
2022/06/05 12:20:39;;;;;;;4.50;4.10;;;;;;;26.42;34.31;100513.77;2188819;81;27613;-66
2022/06/05 12:23:55;;;;;;;3.85;3.55;;;;;;;26.40;34.10;100512.59;2187502;81;28687;-64
2022/06/05 12:27:15;;;;;;;4.75;4.25;;;;;;;26.36;34.42;100499.73;2180609;81;31445;-64
2022/06/05 12:30:34;;;;;;;4.20;3.80;;;;;;;26.40;33.90;100501.59;2187375;81;33930;-65
2022/06/05 12:33:41;;;;;;;3.58;3.37;;;;;;;26.32;34.21;100492.86;2187522;81;29164;-64
2022/06/05 12:36:54;;;;;;;3.52;3.27;;;;;;;26.30;34.32;100480.34;2187799;81;28182;-64
2022/06/05 12:39:56;;;;;;;5.08;4.47;;;;;;;26.39;34.61;100477.37;2178979;81;29040;-64
2022/06/05 12:43:12;;;;;;;3.60;3.20;;;;;;;26.46;33.42;100472.56;2187465;81;31381;-65
2022/06/05 12:46:31;;;;;;;2.65;2.45;;;;;;;26.47;34.56;100468.78;2147985;82;33416;-64
2022/06/05 12:49:56;;;;;;;4.90;4.30;;;;;;;26.50;34.88;100467.90;2187776;81;29332;-64
2022/06/05 12:53:19;;;;;;;6.15;4.30;;;;;;;26.60;34.50;100467.70;2187956;81;27729;-65
2022/06/05 12:56:43;;;;;;;7.00;5.60;;;;;;;26.67;34.49;100467.84;2187738;81;28780;-65
2022/06/05 13:00:01;;;;;;;4.87;4.47;;;;;;;26.65;34.21;100465.78;2187467;81;31185;-64
2022/06/05 13:03:28;;;;;;;1.40;1.32;;;;;;;26.60;33.87;100463.58;2187619;81;32969;-65
2022/06/05 13:07:11;;;;;;;3.40;3.15;;;;;;;26.64;35.03;100449.83;2148156;82;30466;-65
2022/06/05 13:10:30;;;;;;;3.92;3.52;;;;;;;26.74;34.58;100456.98;2188069;81;27689;-65
2022/06/05 13:13:43;;;;;;;5.10;3.58;;;;;;;26.76;34.08;100446.67;2187554;81;28713;-65
2022/06/05 13:17:05;;;;;;;4.70;4.05;;;;;;;26.70;33.55;100435.88;2147598;82;31139;-65
2022/06/05 13:20:39;;;;;;;5.92;4.17;;;;;;;26.68;33.98;100433.33;2206973;79;33069;-65
2022/06/05 13:24:01;;;;;;;4.95;3.77;;;;;;;26.63;34.36;100437.13;2189864;81;29105;-65
2022/06/05 13:27:38;;;;;;;6.65;4.00;;;;;;;26.63;34.75;100438.50;2190033;81;27601;-65
2022/06/05 13:31:00;;;;;;;5.40;4.20;;;;;;;26.55;34.04;100435.80;2188202;81;28702;-65
2022/06/05 13:34:48;;;;;;;4.22;3.83;;;;;;;26.53;34.27;100433.20;2189789;81;31678;-65
2022/06/05 13:38:02;;;;;;;3.67;3.40;;;;;;;26.50;33.85;100428.06;2190017;81;33338;-65
2022/06/05 13:41:38;;;;;;;3.95;3.37;;;;;;;26.40;32.50;100420.56;2190036;81;35195;-64
2022/06/05 13:44:41;;;;;;;6.08;3.77;;;;;;;26.37;33.45;100423.16;2189160;81;27694;-65
2022/06/05 13:47:47;;;;;;;3.80;3.02;;;;;;;26.31;34.21;100417.52;2190036;81;28606;-64
2022/06/05 13:51:03;;;;;;;3.47;3.22;;;;;;;26.19;34.06;100411.00;2158341;81;31029;-65
2022/06/05 13:54:22;;;;;;;6.97;3.40;;;;;;;26.17;34.30;100406.20;2189434;81;32950;-64
2022/06/05 13:57:29;;;;;;;4.10;3.80;;;;;;;26.24;34.04;100407.72;2189416;81;30127;-64
2022/06/05 14:00:36;;;;;;;3.87;3.58;;;;;;;26.20;33.85;100400.36;2190011;81;27816;-64
2022/06/05 14:03:52;;;;;;;3.90;3.58;;;;;;;26.18;33.92;100402.42;2184768;81;28671;-65
2022/06/05 14:07:15;;;;;;;3.25;2.95;;;;;;;26.22;33.12;100396.92;2158018;81;31828;-65
2022/06/05 14:10:26;;;;;;;4.10;3.70;;;;;;;26.24;33.63;100385.25;2149119;82;32946;-65
2022/06/05 14:13:40;;;;;;;3.62;3.33;;;;;;;26.27;33.25;100378.54;2194014;81;29713;-65
2022/06/05 14:16:49;;;;;;;5.10;3.58;;;;;;;26.29;32.81;100378.38;2194631;81;27645;-65
2022/06/05 14:19:57;;;;;;;3.33;3.02;;;;;;;26.28;32.92;100373.92;2169257;81;29077;-65
2022/06/05 14:23:01;;;;;;;4.45;4.05;;;;;;;26.29;33.44;100375.63;2192381;81;31082;-65
2022/06/05 14:26:04;;;;;;;5.03;3.77;;;;;;;26.26;33.18;100364.47;2193096;81;33782;-65
2022/06/05 14:29:09;;;;;;;4.30;3.87;;;;;;;26.26;33.21;100365.00;2193011;81;29341;-65
2022/06/05 14:32:34;;;;;;;5.22;3.62;;;;;;;26.23;33.01;100355.20;2192483;81;27778;-65
2022/06/05 14:35:39;;;;;;;4.63;3.80;;;;;;;26.20;32.99;100359.17;2192928;81;28710;-65
2022/06/05 14:38:55;;;;;;;3.58;3.30;;;;;;;26.28;33.25;100347.30;2192278;81;31019;-65
2022/06/05 14:42:20;;;;;;;4.00;3.70;;;;;;;26.31;33.32;100339.23;2176266;81;33146;-65
2022/06/05 14:45:27;;;;;;;3.60;3.35;;;;;;;26.29;32.93;100339.39;2167508;81;29890;-66
2022/06/05 14:48:34;;;;;;;4.78;3.37;;;;;;;26.26;33.17;100334.25;2147379;82;27691;-66
2022/06/05 14:51:56;;;;;;;3.80;3.50;;;;;;;26.26;33.58;100330.13;2147377;82;28654;-66
2022/06/05 14:58:44;;;;;;;4.28;3.62;;;;;;;26.18;33.48;100322.79;2195419;81;34154;-65
2022/06/05 15:02:15;;;;;;;4.78;3.47;;;;;;;26.18;33.30;100315.08;2147170;82;29717;-66